Time;durP1;ratioP1;P1;durP2;ratioP2;P2;SDS_P1;SDS_P2;PMS_P1;PMS_P2;Temp;Humidity;BMP_temperature;BMP_pressure;BME280_temperature;BME280_humidity;BME280_pressure;Samples;Min_cycle;Max_cycle;Signal;HPM_P1;HPM_P2
2021/12/05 00:19:52;;;;;;;7.77;3.53;;;;;5.30;99217.00;;;;5080645;28;20234;-74
2021/12/05 00:22:40;;;;;;;10.17;3.73;;;;;5.30;99231.00;;;;5078087;28;20235;-72
2021/12/05 00:25:29;;;;;;;19.73;4.10;;;;;5.30;99219.00;;;;5058910;28;20231;-75
2021/12/05 00:31:40;;;;;;;15.63;4.30;;;;;5.20;99229.00;;;;5058484;28;20620;-72
2021/12/05 00:34:48;;;;;;;12.00;3.73;;;;;5.20;99233.00;;;;5063835;28;20301;-72
2021/12/05 00:41:05;;;;;;;10.00;3.43;;;;;5.10;99233.00;;;;5043781;28;20963;-70
2021/12/05 00:44:39;;;;;;;9.77;3.80;;;;;5.00;99240.00;;;;5073940;28;20273;-72
2021/12/05 00:47:35;;;;;;;5.67;3.30;;;;;5.10;99244.00;;;;5060779;28;20236;-72
2021/12/05 00:50:59;;;;;;;8.23;3.30;;;;;5.10;99254.00;;;;5077798;28;20268;-73
2021/12/05 00:57:22;;;;;;;17.43;4.27;;;;;5.10;99234.00;;;;5076352;28;20751;-75
2021/12/05 01:00:29;;;;;;;9.20;3.70;;;;;5.20;99244.00;;;;5077797;28;20733;-74
2021/12/05 01:03:33;;;;;;;7.80;4.13;;;;;5.10;99242.00;;;;5079919;28;20235;-74
2021/12/05 01:09:41;;;;;;;9.73;4.33;;;;;5.00;99258.00;;;;5070833;28;20963;-74
2021/12/05 01:12:42;;;;;;;10.13;4.00;;;;;4.90;99235.00;;;;5082782;28;20231;-74
2021/12/05 01:15:29;;;;;;;12.90;4.10;;;;;4.90;99245.00;;;;5083132;28;20238;-74
2021/12/05 01:18:17;;;;;;;11.23;4.40;;;;;4.90;99243.00;;;;5084333;28;20606;-74
2021/12/05 01:21:09;;;;;;;10.53;4.23;;;;;5.00;99265.00;;;;5082445;28;20296;-74
2021/12/05 01:24:04;;;;;;;14.73;4.70;;;;;5.00;99257.00;;;;5083886;28;20227;-73
2021/12/05 01:26:57;;;;;;;11.70;4.40;;;;;4.90;99257.00;;;;5077640;28;20235;-73
2021/12/05 01:29:49;;;;;;;8.83;4.20;;;;;4.90;99264.00;;;;5078912;28;20274;-74
2021/12/05 01:32:47;;;;;;;9.53;4.10;;;;;4.80;99264.00;;;;5074137;28;20747;-75
2021/12/05 01:35:50;;;;;;;9.47;4.40;;;;;4.80;99265.00;;;;5084175;28;20235;-73
2021/12/05 01:39:04;;;;;;;14.13;3.83;;;;;5.00;99274.00;;;;5088913;28;20244;-73
2021/12/05 01:45:44;;;;;;;10.17;4.70;;;;;5.00;99266.00;;;;5084414;28;20767;-74
2021/12/05 01:58:10;;;;;;;6.83;3.87;;;;;5.10;99262.00;;;;5080556;28;20230;-74
2021/12/05 02:01:22;;;;;;;12.93;4.40;;;;;5.10;99263.00;;;;5084780;28;20235;-73
2021/12/05 02:32:17;;;;;;;15.03;3.60;;;;;5.20;99260.00;;;;4998509;28;20225;-76
2021/12/05 02:35:20;;;;;;;9.20;2.90;;;;;5.20;99258.00;;;;5025375;28;20220;-74
2021/12/05 02:41:15;;;;;;;8.77;3.60;;;;;5.20;99257.00;;;;5011355;28;20266;-73
2021/12/05 02:44:05;;;;;;;8.83;3.10;;;;;5.20;99248.00;;;;5025130;28;20228;-73
2021/12/05 02:46:59;;;;;;;7.13;2.93;;;;;5.20;99249.00;;;;5018819;28;20241;-72
2021/12/05 02:49:48;;;;;;;8.23;3.27;;;;;5.20;99244.00;;;;5002588;28;20235;-72
2021/12/05 02:52:38;;;;;;;10.80;3.30;;;;;5.20;99248.00;;;;5001886;28;20277;-73
2021/12/05 02:55:38;;;;;;;10.20;3.70;;;;;5.30;99252.00;;;;5002638;28;20238;-74
2021/12/05 02:58:29;;;;;;;10.43;4.00;;;;;5.30;99247.00;;;;5028309;28;20671;-73
2021/12/05 03:01:26;;;;;;;10.23;3.43;;;;;5.30;99251.00;;;;5022915;28;20241;-73
2021/12/05 03:04:13;;;;;;;14.07;3.67;;;;;5.30;99245.00;;;;5001332;28;20249;-73
2021/12/05 03:07:04;;;;;;;17.73;3.47;;;;;5.30;99255.00;;;;5004264;28;20320;-70
2021/12/05 03:09:50;;;;;;;10.57;2.63;;;;;5.20;99261.00;;;;5031630;28;20237;-73
2021/12/05 03:12:39;;;;;;;8.77;3.53;;;;;5.10;99253.00;;;;5022879;28;20249;-73
2021/12/05 03:15:25;;;;;;;8.30;2.93;;;;;5.10;99248.00;;;;5021848;28;20323;-73
2021/12/05 03:18:11;;;;;;;9.47;3.73;;;;;5.20;99258.00;;;;5026636;28;20286;-72
2021/12/05 03:21:00;;;;;;;9.97;3.93;;;;;5.00;99248.00;;;;5014534;28;20225;-73
2021/12/05 03:23:50;;;;;;;8.10;3.73;;;;;5.00;99251.00;;;;5018110;28;20727;-72
2021/12/05 03:26:40;;;;;;;12.47;3.70;;;;;5.20;99254.00;;;;5022335;28;20855;-73
2021/12/05 03:29:28;;;;;;;12.53;3.93;;;;;5.20;99253.00;;;;5014378;28;20250;-74
2021/12/05 03:32:14;;;;;;;9.17;4.10;;;;;5.20;99240.00;;;;5016951;28;20404;-73
2021/12/05 03:35:01;;;;;;;7.60;3.90;;;;;5.20;99253.00;;;;5017806;28;20288;-73
2021/12/05 03:37:48;;;;;;;10.67;3.70;;;;;5.20;99257.00;;;;5004975;28;20593;-72
2021/12/05 03:40:34;;;;;;;8.23;3.33;;;;;5.10;99253.00;;;;4994520;28;20234;-72
2021/12/05 03:43:21;;;;;;;8.27;3.70;;;;;5.10;99234.00;;;;5009832;28;20226;-72
2021/12/05 03:46:10;;;;;;;9.37;3.33;;;;;5.20;99256.00;;;;4990501;28;20235;-71
2021/12/05 03:48:58;;;;;;;13.00;3.40;;;;;5.10;99237.00;;;;4988918;28;20230;-73
2021/12/05 03:51:48;;;;;;;13.00;3.90;;;;;5.10;99208.00;;;;4988388;28;20298;-73
2021/12/05 03:54:35;;;;;;;11.83;3.70;;;;;5.00;99249.00;;;;4987984;28;20673;-72
2021/12/05 03:57:21;;;;;;;8.77;3.57;;;;;5.10;99247.00;;;;5008224;28;20253;-73
2021/12/05 04:00:12;;;;;;;7.33;3.00;;;;;5.10;99251.00;;;;4988666;28;20238;-73
2021/12/05 04:03:02;;;;;;;11.83;3.80;;;;;5.10;99248.00;;;;4982544;28;20262;-73
2021/12/05 04:05:50;;;;;;;15.23;3.80;;;;;5.20;99247.00;;;;4987725;28;20230;-73
2021/12/05 04:08:39;;;;;;;12.23;3.20;;;;;5.10;99263.00;;;;4988443;28;20231;-72
2021/12/05 04:11:30;;;;;;;7.87;3.03;;;;;5.10;99240.00;;;;5016843;28;20288;-73
2021/12/05 04:14:17;;;;;;;9.07;2.83;;;;;5.20;99251.00;;;;5019946;28;20308;-73
2021/12/05 04:17:07;;;;;;;10.00;2.60;;;;;5.10;99256.00;;;;4987458;28;20640;-71
2021/12/05 04:19:54;;;;;;;5.97;2.90;;;;;5.10;99257.00;;;;4987831;28;20234;-72
2021/12/05 04:22:42;;;;;;;9.77;3.00;;;;;5.10;99247.00;;;;5006288;28;20230;-70
2021/12/05 04:25:28;;;;;;;6.83;2.90;;;;;5.10;99243.00;;;;4989119;28;20304;-74
2021/12/05 04:28:16;;;;;;;9.83;3.07;;;;;5.20;99263.00;;;;5010742;28;20237;-73
2021/12/05 04:31:03;;;;;;;6.37;2.70;;;;;5.20;99270.00;;;;5008300;28;20316;-75
2021/12/05 04:33:50;;;;;;;7.27;2.70;;;;;5.20;99260.00;;;;4997138;28;20739;-73
2021/12/05 04:36:39;;;;;;;7.80;2.77;;;;;5.10;99262.00;;;;5013411;28;20713;-74
2021/12/05 04:39:26;;;;;;;5.97;2.70;;;;;5.20;99247.00;;;;5011756;28;20248;-71
2021/12/05 04:42:12;;;;;;;5.10;2.50;;;;;5.00;99253.00;;;;4992024;28;20234;-71
2021/12/05 04:45:01;;;;;;;13.17;2.80;;;;;5.10;99268.00;;;;4991857;28;20238;-74
2021/12/05 04:47:48;;;;;;;12.30;2.50;;;;;5.20;99266.00;;;;5020930;28;20214;-75
2021/12/05 04:50:36;;;;;;;4.83;2.23;;;;;5.20;99270.00;;;;5013867;28;20253;-76
2021/12/05 04:53:26;;;;;;;6.87;2.77;;;;;5.10;99271.00;;;;5042023;28;20237;-76
2021/12/05 04:56:13;;;;;;;6.23;2.47;;;;;5.20;99267.00;;;;5030270;28;20246;-75
2021/12/05 04:59:03;;;;;;;6.13;2.43;;;;;5.30;99265.00;;;;5036174;28;20346;-73
2021/12/05 05:01:52;;;;;;;5.53;2.50;;;;;5.20;99268.00;;;;5035070;28;20217;-74
2021/12/05 05:04:42;;;;;;;7.50;2.50;;;;;5.20;99262.00;;;;5044268;28;20237;-73
2021/12/05 05:07:29;;;;;;;10.57;3.10;;;;;5.30;99258.00;;;;5021364;28;20247;-75
2021/12/05 05:10:20;;;;;;;4.73;2.60;;;;;5.10;99252.00;;;;5042868;28;20241;-74
2021/12/05 05:13:06;;;;;;;5.60;2.23;;;;;5.10;99250.00;;;;5015431;28;20238;-74
2021/12/05 05:15:53;;;;;;;8.53;2.70;;;;;5.30;99256.00;;;;5016898;28;20230;-74
2021/12/05 05:18:45;;;;;;;8.00;2.17;;;;;5.10;99264.00;;;;5031725;28;20237;-73
2021/12/05 05:21:39;;;;;;;8.80;2.30;;;;;5.20;99267.00;;;;4985194;28;20255;-72
2021/12/05 05:40:01;;;;;;;5.53;2.40;;;;;5.20;99284.00;;;;5010401;28;20236;-72
2021/12/05 05:43:16;;;;;;;7.27;2.33;;;;;5.20;99291.00;;;;4996146;28;20658;-74
2021/12/05 05:46:09;;;;;;;7.27;2.53;;;;;5.20;99289.00;;;;5012682;28;20722;-73
2021/12/05 05:49:00;;;;;;;9.33;2.80;;;;;5.20;99295.00;;;;5011382;28;20233;-73
2021/12/05 05:51:46;;;;;;;6.40;2.40;;;;;5.30;99308.00;;;;4987333;28;20757;-74
2021/12/05 05:54:32;;;;;;;7.30;2.23;;;;;5.40;99292.00;;;;4977448;28;20363;-73
2021/12/05 05:57:24;;;;;;;4.97;2.30;;;;;5.40;99296.00;;;;5002829;28;20367;-72
2021/12/05 06:00:21;;;;;;;6.53;2.73;;;;;5.30;99307.00;;;;4990478;28;20263;-74
2021/12/05 06:03:22;;;;;;;4.97;2.23;;;;;5.30;99307.00;;;;4981697;28;20238;-75
2021/12/05 06:06:12;;;;;;;6.93;2.27;;;;;5.20;99317.00;;;;5009843;28;20225;-73
2021/12/05 06:08:59;;;;;;;5.80;2.40;;;;;5.20;99326.00;;;;5005976;28;20315;-74
2021/12/05 06:11:46;;;;;;;15.57;2.57;;;;;5.20;99322.00;;;;4993947;28;20226;-74
2021/12/05 06:14:32;;;;;;;5.53;2.53;;;;;5.10;99332.00;;;;5007940;28;20225;-74
2021/12/05 06:17:19;;;;;;;7.23;2.23;;;;;5.30;99335.00;;;;4992555;28;20725;-74
2021/12/05 06:20:07;;;;;;;6.87;2.60;;;;;5.30;99329.00;;;;4992317;28;20320;-74
2021/12/05 06:22:54;;;;;;;7.83;2.50;;;;;5.40;99332.00;;;;5005304;28;20253;-73
2021/12/05 06:25:44;;;;;;;9.43;2.57;;;;;5.40;99339.00;;;;5012051;28;20237;-76
2021/12/05 06:28:34;;;;;;;5.97;2.40;;;;;5.50;99330.00;;;;5011996;28;20248;-73
2021/12/05 06:31:28;;;;;;;9.87;2.60;;;;;5.40;99348.00;;;;5000919;28;20241;-73
2021/12/05 06:46:23;;;;;;;8.93;2.20;;;;;5.30;99369.00;;;;5012793;28;20237;-75
2021/12/05 06:49:11;;;;;;;8.70;2.13;;;;;5.40;99364.00;;;;5006172;28;20250;-72
2021/12/05 06:51:59;;;;;;;8.07;2.30;;;;;5.30;99371.00;;;;5006301;28;20230;-74
2021/12/05 06:54:45;;;;;;;5.43;2.27;;;;;5.30;99370.00;;;;4982312;28;20378;-74
2021/12/05 06:57:32;;;;;;;4.00;2.10;;;;;5.40;99379.00;;;;4986285;28;20234;-73
2021/12/05 07:00:21;;;;;;;9.13;2.43;;;;;5.30;99387.00;;;;4989866;28;20261;-73
2021/12/05 07:03:09;;;;;;;3.00;1.93;;;;;5.30;99382.00;;;;4979453;28;20710;-73
2021/12/05 07:05:59;;;;;;;5.73;2.17;;;;;5.30;99394.00;;;;5016579;28;20238;-74
2021/12/05 07:08:48;;;;;;;6.93;1.93;;;;;5.50;99386.00;;;;4989152;28;20310;-73
2021/12/05 07:11:41;;;;;;;5.37;1.90;;;;;5.40;99392.00;;;;4988517;28;20230;-73
2021/12/05 07:14:43;;;;;;;3.43;1.73;;;;;5.40;99391.00;;;;5020025;28;20234;-72
2021/12/05 07:20:29;;;;;;;5.30;2.40;;;;;5.40;99401.00;;;;5000241;28;20317;-74
2021/12/05 07:23:28;;;;;;;6.27;1.50;;;;;5.50;99397.00;;;;5005233;28;20230;-74
2021/12/05 07:26:23;;;;;;;5.97;2.00;;;;;5.50;99391.00;;;;5021864;28;20237;-73
2021/12/05 07:41:45;;;;;;;5.57;1.93;;;;;5.40;99400.00;;;;4991323;28;20250;-74
2021/12/05 07:44:31;;;;;;;4.43;1.90;;;;;5.40;99409.00;;;;4991719;28;20253;-74
2021/12/05 07:47:20;;;;;;;2.57;1.60;;;;;5.50;99402.00;;;;5009881;28;20246;-74
2021/12/05 07:50:10;;;;;;;5.53;2.10;;;;;5.60;99407.00;;;;4986294;28;20837;-73
2021/12/05 07:53:04;;;;;;;3.33;1.90;;;;;5.50;99428.00;;;;4989568;28;20713;-73
2021/12/05 07:55:54;;;;;;;3.27;1.77;;;;;5.50;99402.00;;;;4989676;28;20639;-73
2021/12/05 07:59:05;;;;;;;6.00;1.90;;;;;5.60;99413.00;;;;4979573;28;20231;-71
2021/12/05 08:14:35;;;;;;;4.43;2.13;;;;;5.70;99429.00;;;;5002900;28;20233;-70
2021/12/05 08:17:22;;;;;;;2.57;1.90;;;;;5.70;99429.00;;;;5006653;28;20753;-68
2021/12/05 08:20:11;;;;;;;2.87;1.73;;;;;5.80;99438.00;;;;4988367;28;20285;-69
2021/12/05 08:23:00;;;;;;;5.80;2.13;;;;;5.80;99433.00;;;;4982399;28;20238;-68
2021/12/05 08:25:53;;;;;;;7.70;2.20;;;;;5.90;99442.00;;;;4980982;28;20231;-74
2021/12/05 08:28:57;;;;;;;4.77;2.53;;;;;5.90;99442.00;;;;5001188;28;20222;-73
2021/12/05 08:32:06;;;;;;;4.90;2.30;;;;;5.90;99438.00;;;;4999204;28;20229;-74
2021/12/05 08:35:06;;;;;;;5.77;2.00;;;;;6.00;99441.00;;;;5005416;28;20353;-74
2021/12/05 09:21:55;;;;;;;5.90;1.80;;;;;5.80;99510.00;;;;5005624;28;20648;-76
2021/12/05 09:24:48;;;;;;;4.07;1.80;;;;;5.80;99512.00;;;;5006413;28;20705;-76
2021/12/05 09:40:10;;;;;;;4.33;1.73;;;;;5.90;99525.00;;;;5002797;28;20288;-72
2021/12/05 10:11:21;;;;;;;5.67;2.27;;;;;6.10;99588.00;;;;5001587;28;20230;-75
2021/12/05 10:14:24;;;;;;;5.07;2.10;;;;;6.10;99580.00;;;;4990265;28;20233;-73
2021/12/05 10:17:37;;;;;;;3.17;2.20;;;;;5.90;99586.00;;;;4981664;28;20230;-75
2021/12/05 10:26:07;;;;;;;3.83;2.03;;;;;5.90;99599.00;;;;5002365;28;20734;-74
2021/12/05 10:36:19;;;;;;;3.33;2.20;;;;;5.90;99609.00;;;;4981900;28;20248;-72
2021/12/05 10:39:10;;;;;;;4.23;2.30;;;;;6.00;99613.00;;;;4983602;28;20293;-74
2021/12/05 10:42:24;;;;;;;4.57;2.53;;;;;5.90;99618.00;;;;4989943;28;20257;-74
2021/12/05 10:45:09;;;;;;;9.50;2.70;;;;;6.00;99621.00;;;;5009767;28;20320;-71
2021/12/05 10:47:57;;;;;;;5.90;2.27;;;;;6.10;99622.00;;;;5003621;28;20320;-71
2021/12/05 10:50:46;;;;;;;4.93;2.67;;;;;6.10;99618.00;;;;5001885;28;20625;-68
2021/12/05 10:53:40;;;;;;;4.20;2.40;;;;;6.20;99625.00;;;;5008292;28;20242;-69
2021/12/05 10:56:28;;;;;;;3.17;2.10;;;;;6.20;99623.00;;;;5009306;28;20297;-73
2021/12/05 10:59:17;;;;;;;5.00;2.23;;;;;6.20;99636.00;;;;5003187;28;20313;-72
2021/12/05 11:02:06;;;;;;;3.57;2.40;;;;;6.20;99627.00;;;;5001063;28;20420;-73
2021/12/05 11:04:52;;;;;;;1.90;1.80;;;;;6.10;99632.00;;;;5009869;28;20324;-71
2021/12/05 11:07:39;;;;;;;5.20;2.20;;;;;6.00;99635.00;;;;4987018;28;20331;-73
2021/12/05 11:10:26;;;;;;;5.27;2.40;;;;;6.00;99634.00;;;;4981380;28;20227;-72
2021/12/05 11:13:27;;;;;;;3.93;2.37;;;;;5.90;99639.00;;;;4989588;28;20226;-71
2021/12/05 11:16:43;;;;;;;4.97;2.50;;;;;5.90;99637.00;;;;4992623;28;20234;-70
2021/12/05 11:19:37;;;;;;;4.00;2.33;;;;;5.90;99648.00;;;;4975110;28;20290;-70
2021/12/05 11:22:26;;;;;;;5.20;2.20;;;;;5.90;99647.00;;;;4980797;28;20243;-71
2021/12/05 11:25:15;;;;;;;2.47;2.23;;;;;5.90;99649.00;;;;4987018;28;20293;-73
2021/12/05 11:28:08;;;;;;;4.57;2.20;;;;;5.90;99647.00;;;;4984676;28;20230;-72
2021/12/05 11:30:56;;;;;;;3.50;2.07;;;;;5.80;99652.00;;;;4991560;28;20229;-73
2021/12/05 11:33:46;;;;;;;6.10;2.40;;;;;5.80;99646.00;;;;4985775;28;20230;-74
2021/12/05 11:36:35;;;;;;;4.37;2.07;;;;;5.80;99647.00;;;;4984162;28;20270;-72
2021/12/05 11:39:22;;;;;;;2.97;2.07;;;;;5.80;99634.00;;;;4991634;28;20317;-73
2021/12/05 11:42:18;;;;;;;6.33;2.30;;;;;5.80;99647.00;;;;4989795;28;20308;-74
2021/12/05 11:45:08;;;;;;;3.73;1.97;;;;;5.90;99646.00;;;;4984116;28;20370;-72
2021/12/05 11:47:54;;;;;;;4.00;2.50;;;;;5.80;99641.00;;;;4989854;28;20859;-74
2021/12/05 11:50:41;;;;;;;3.83;2.73;;;;;6.00;99647.00;;;;4981621;28;20234;-71
2021/12/05 11:53:38;;;;;;;3.83;2.43;;;;;5.90;99639.00;;;;5006123;28;20745;-70
2021/12/05 11:56:39;;;;;;;4.20;2.43;;;;;5.90;99649.00;;;;5021058;28;20844;-72
2021/12/05 11:59:29;;;;;;;3.07;1.90;;;;;5.90;99652.00;;;;4991290;28;20237;-72
2021/12/05 12:02:19;;;;;;;3.23;2.23;;;;;5.90;99659.00;;;;4987194;28;20262;-72
2021/12/05 12:05:09;;;;;;;2.40;1.83;;;;;5.90;99652.00;;;;4988855;28;21192;-70
2021/12/05 12:08:02;;;;;;;3.60;1.90;;;;;5.90;99667.00;;;;5014416;28;20229;-71
2021/12/05 12:10:57;;;;;;;1.97;1.63;;;;;5.90;99662.00;;;;4988399;28;20223;-71
2021/12/05 12:13:43;;;;;;;2.80;1.90;;;;;5.90;99680.00;;;;4987827;28;20853;-71
2021/12/05 12:16:33;;;;;;;3.77;2.07;;;;;5.80;99672.00;;;;4986131;28;20306;-70
2021/12/05 12:19:22;;;;;;;3.13;2.17;;;;;5.80;99668.00;;;;5008972;28;20340;-70
2021/12/05 12:22:09;;;;;;;9.80;2.33;;;;;5.80;99664.00;;;;5007813;28;20237;-70
2021/12/05 12:24:58;;;;;;;6.67;2.13;;;;;5.80;99667.00;;;;5001480;28;20268;-71
2021/12/05 12:27:46;;;;;;;2.63;2.00;;;;;5.80;99675.00;;;;4996383;28;20605;-69
2021/12/05 12:30:37;;;;;;;3.13;2.20;;;;;5.80;99674.00;;;;4987473;28;20287;-71
2021/12/05 12:33:28;;;;;;;4.50;2.00;;;;;5.80;99674.00;;;;5005102;28;20233;-70
2021/12/05 12:36:31;;;;;;;2.53;2.03;;;;;5.80;99676.00;;;;5008003;28;20242;-70
2021/12/05 12:39:31;;;;;;;3.90;2.67;;;;;5.80;99672.00;;;;5000153;28;20264;-71
2021/12/05 12:42:20;;;;;;;4.03;3.17;;;;;5.80;99679.00;;;;4995828;28;20238;-73
2021/12/05 12:45:15;;;;;;;5.50;3.03;;;;;5.80;99698.00;;;;5002408;28;20257;-73
2021/12/05 12:48:03;;;;;;;6.17;3.50;;;;;5.80;99690.00;;;;5001900;28;20226;-71
2021/12/05 12:50:51;;;;;;;7.57;3.67;;;;;5.80;99692.00;;;;4997996;28;20582;-72
2021/12/05 12:53:42;;;;;;;4.57;3.20;;;;;5.80;99683.00;;;;5007545;28;20289;-72
2021/12/05 12:56:29;;;;;;;7.20;3.63;;;;;5.80;99693.00;;;;5007123;28;20242;-72
2021/12/05 12:59:17;;;;;;;6.67;3.63;;;;;5.90;99692.00;;;;5007390;28;20238;-72
2021/12/05 13:02:28;;;;;;;6.40;3.60;;;;;6.00;99691.00;;;;4992352;28;20230;-71
2021/12/05 13:05:40;;;;;;;9.60;4.67;;;;;5.80;99709.00;;;;5003363;28;20737;-71
2021/12/05 13:11:47;;;;;;;7.63;4.73;;;;;5.80;99711.00;;;;5005351;28;20613;-71
2021/12/05 13:14:33;;;;;;;6.77;4.33;;;;;5.80;99710.00;;;;5005913;28;20323;-72
2021/12/05 13:17:38;;;;;;;9.23;4.60;;;;;5.70;99711.00;;;;5003410;28;20314;-72
2021/12/05 13:20:28;;;;;;;5.37;4.27;;;;;5.80;99720.00;;;;4989229;28;20238;-73
2021/12/05 13:23:16;;;;;;;6.93;4.47;;;;;5.80;99714.00;;;;4993233;28;20242;-71
2021/12/05 13:26:23;;;;;;;6.63;4.10;;;;;5.80;99716.00;;;;5019051;28;20233;-70
2021/12/05 13:29:17;;;;;;;6.13;4.00;;;;;5.80;99722.00;;;;4981643;28;20243;-71
2021/12/05 13:32:10;;;;;;;6.27;3.53;;;;;5.80;99710.00;;;;4986758;28;20242;-71
2021/12/05 13:34:59;;;;;;;6.63;3.60;;;;;5.80;99715.00;;;;5010053;28;20376;-71
2021/12/05 13:37:47;;;;;;;3.93;3.50;;;;;5.80;99726.00;;;;4985256;28;20249;-72
2021/12/05 13:40:34;;;;;;;7.73;4.73;;;;;5.70;99710.00;;;;4993863;28;20230;-71
2021/12/05 13:43:28;;;;;;;32.77;15.73;;;;;5.80;99731.00;;;;5011743;28;20346;-72
2021/12/05 13:46:35;;;;;;;15.47;8.50;;;;;5.80;99734.00;;;;5014650;28;20284;-70
2021/12/05 13:49:34;;;;;;;10.00;5.30;;;;;5.80;99745.00;;;;5001022;28;20371;-70
2021/12/05 13:52:31;;;;;;;8.80;5.73;;;;;5.70;99712.00;;;;4987547;28;20358;-72
2021/12/05 13:55:34;;;;;;;10.00;5.50;;;;;5.70;99743.00;;;;4989292;28;20238;-72
2021/12/05 13:58:24;;;;;;;7.03;4.20;;;;;5.70;99739.00;;;;5007876;28;20233;-71
2021/12/05 14:01:15;;;;;;;5.83;4.27;;;;;5.80;99749.00;;;;5007121;28;20253;-73
2021/12/05 14:04:24;;;;;;;10.10;5.27;;;;;5.80;99750.00;;;;5010624;28;20258;-72
2021/12/05 14:07:12;;;;;;;8.20;4.30;;;;;5.80;99757.00;;;;4985961;28;20734;-72
2021/12/05 14:09:59;;;;;;;7.20;4.00;;;;;5.70;99767.00;;;;4978006;28;20722;-70
2021/12/05 14:12:46;;;;;;;4.30;3.50;;;;;5.70;99769.00;;;;4979333;28;20314;-72
2021/12/05 14:15:32;;;;;;;3.70;3.03;;;;;5.70;99779.00;;;;4977953;28;20777;-73
2021/12/05 14:18:20;;;;;;;5.37;3.10;;;;;5.70;99779.00;;;;4973465;28;20238;-70
2021/12/05 14:21:13;;;;;;;5.93;3.70;;;;;5.80;99788.00;;;;4992328;28;20258;-71
2021/12/05 14:24:01;;;;;;;5.10;3.47;;;;;5.80;99788.00;;;;5003317;28;20722;-73
2021/12/05 14:26:48;;;;;;;5.37;3.43;;;;;5.70;99798.00;;;;4999891;28;20229;-72
2021/12/05 14:29:39;;;;;;;5.23;3.37;;;;;5.80;99791.00;;;;5001250;28;20234;-71
2021/12/05 14:32:29;;;;;;;7.03;3.50;;;;;5.70;99795.00;;;;4991036;28;20230;-71
2021/12/05 14:35:19;;;;;;;4.37;3.47;;;;;5.70;99803.00;;;;5013496;28;20233;-69
2021/12/05 14:38:08;;;;;;;7.03;3.83;;;;;5.80;99823.00;;;;4985240;28;20227;-70
2021/12/05 14:40:55;;;;;;;5.17;3.73;;;;;5.80;99822.00;;;;4986251;28;20225;-69
2021/12/05 14:43:41;;;;;;;6.73;4.53;;;;;5.90;99833.00;;;;4985895;28;20234;-70
2021/12/05 14:46:28;;;;;;;4.40;3.33;;;;;5.70;99831.00;;;;4993234;28;20246;-68
2021/12/05 14:49:15;;;;;;;5.90;3.90;;;;;5.60;99849.00;;;;5002663;28;20238;-68
2021/12/05 14:52:02;;;;;;;4.70;3.30;;;;;5.70;99843.00;;;;5007280;28;20229;-70
2021/12/05 14:54:51;;;;;;;4.53;3.80;;;;;5.70;99841.00;;;;4986026;28;20234;-70
2021/12/05 14:57:41;;;;;;;5.57;3.90;;;;;5.60;99853.00;;;;4985281;28;20237;-68
2021/12/05 15:00:30;;;;;;;5.90;3.30;;;;;5.70;99850.00;;;;4988635;28;20362;-69
2021/12/05 15:03:20;;;;;;;6.60;3.10;;;;;5.50;99864.00;;;;4985580;28;20409;-70
2021/12/05 15:06:08;;;;;;;4.67;3.70;;;;;5.50;99862.00;;;;4983678;28;20320;-71
2021/12/05 15:08:55;;;;;;;4.97;3.50;;;;;5.50;99867.00;;;;4988236;28;20602;-70
2021/12/05 15:11:49;;;;;;;5.63;3.47;;;;;5.60;99887.00;;;;4980899;28;20607;-72
2021/12/05 15:14:37;;;;;;;6.17;3.63;;;;;5.50;99888.00;;;;4988529;28;20316;-68
2021/12/05 15:17:25;;;;;;;6.90;3.80;;;;;5.50;99884.00;;;;4988713;28;20404;-70
2021/12/05 15:20:20;;;;;;;7.60;4.13;;;;;5.40;99878.00;;;;5005087;28;20364;-72
2021/12/05 15:23:10;;;;;;;8.23;3.90;;;;;5.40;99886.00;;;;4995309;28;20742;-69
2021/12/05 15:25:59;;;;;;;6.53;4.00;;;;;5.40;99887.00;;;;4987214;28;20234;-70
2021/12/05 15:28:47;;;;;;;6.53;4.43;;;;;5.40;99891.00;;;;4982498;28;20235;-71
2021/12/05 15:31:43;;;;;;;8.07;5.00;;;;;5.30;99893.00;;;;5009279;28;20225;-72
2021/12/05 15:34:33;;;;;;;8.83;4.80;;;;;5.40;99904.00;;;;5015095;28;20281;-70
2021/12/05 15:37:21;;;;;;;6.80;4.53;;;;;5.40;99902.00;;;;5008834;28;20733;-71
2021/12/05 15:40:07;;;;;;;7.07;4.93;;;;;5.40;99909.00;;;;5009489;28;20321;-73
2021/12/05 15:43:00;;;;;;;6.40;4.43;;;;;5.30;99926.00;;;;4982320;28;20857;-70
2021/12/05 15:45:52;;;;;;;7.20;4.93;;;;;5.20;99927.00;;;;4985186;28;20297;-73
2021/12/05 15:48:38;;;;;;;7.80;5.20;;;;;5.20;99929.00;;;;4992646;28;20225;-71
2021/12/05 15:51:25;;;;;;;7.17;5.00;;;;;5.10;99939.00;;;;5003784;28;20724;-72
2021/12/05 15:54:13;;;;;;;11.00;5.43;;;;;5.10;99937.00;;;;4992531;28;20297;-71
2021/12/05 15:57:09;;;;;;;7.10;4.93;;;;;5.00;99947.00;;;;4983198;28;20255;-72
2021/12/05 15:59:56;;;;;;;8.00;5.00;;;;;5.00;99948.00;;;;4981314;28;20725;-71
2021/12/05 16:02:47;;;;;;;8.43;6.07;;;;;4.90;99945.00;;;;4988889;28;20225;-71
2021/12/05 16:05:36;;;;;;;9.27;5.93;;;;;4.90;99937.00;;;;4987491;28;20238;-71
2021/12/05 16:08:22;;;;;;;11.30;6.47;;;;;4.90;99957.00;;;;4982431;28;20314;-71
2021/12/05 16:11:11;;;;;;;10.97;6.83;;;;;5.00;99970.00;;;;4979481;28;20968;-71
2021/12/05 16:13:57;;;;;;;10.43;7.33;;;;;5.00;99972.00;;;;4987595;28;20243;-72
2021/12/05 16:16:48;;;;;;;10.03;5.40;;;;;4.90;99963.00;;;;5005406;28;20250;-74
2021/12/05 16:19:36;;;;;;;7.90;4.73;;;;;4.90;99971.00;;;;4979901;28;20742;-72
2021/12/05 16:23:17;;;;;;;7.80;4.90;;;;;4.90;99974.00;;;;4981417;28;20258;-72
2021/12/05 16:26:09;;;;;;;9.77;5.33;;;;;4.90;99989.00;;;;4980332;28;20361;-71
2021/12/05 16:28:57;;;;;;;9.40;5.40;;;;;4.90;99997.00;;;;4984568;28;20226;-70
2021/12/05 16:31:46;;;;;;;11.40;7.00;;;;;5.00;100009.00;;;;4985649;28;20247;-70
2021/12/05 16:34:40;;;;;;;18.13;9.27;;;;;4.90;99972.00;;;;4980724;28;20251;-70
2021/12/05 16:37:31;;;;;;;14.97;9.10;;;;;4.90;100004.00;;;;4988634;28;20254;-70
2021/12/05 16:40:18;;;;;;;18.03;9.40;;;;;4.90;100003.00;;;;5011128;28;20320;-72
2021/12/05 16:43:09;;;;;;;18.77;9.70;;;;;5.00;100018.00;;;;5003900;28;20234;-71
2021/12/05 16:46:03;;;;;;;18.70;10.27;;;;;5.10;100015.00;;;;5002697;28;20241;-70
2021/12/05 16:48:52;;;;;;;16.17;9.43;;;;;5.00;100027.00;;;;4985631;28;20255;-72
2021/12/05 16:51:46;;;;;;;15.03;8.17;;;;;5.10;100027.00;;;;4984912;28;20230;-71
2021/12/05 16:54:36;;;;;;;11.50;6.90;;;;;5.00;100028.00;;;;4985542;28;20723;-71
2021/12/05 16:57:29;;;;;;;10.13;6.60;;;;;5.00;100033.00;;;;4989636;28;20808;-72
2021/12/05 17:00:18;;;;;;;9.00;6.00;;;;;5.10;100035.00;;;;5004829;28;20285;-72
2021/12/05 17:03:07;;;;;;;10.40;6.60;;;;;5.00;100034.00;;;;5013156;28;20268;-72
2021/12/05 17:05:59;;;;;;;9.03;5.77;;;;;5.00;100044.00;;;;5008499;28;20249;-70
2021/12/05 17:08:47;;;;;;;8.30;5.60;;;;;5.00;100030.00;;;;4981517;28;20722;-71
2021/12/05 17:11:37;;;;;;;11.13;6.83;;;;;4.90;100042.00;;;;5002177;28;20321;-73
2021/12/05 17:14:26;;;;;;;9.90;6.03;;;;;5.00;100044.00;;;;5003342;28;20246;-73
2021/12/05 17:17:13;;;;;;;14.93;7.63;;;;;5.00;100055.00;;;;5012448;28;20728;-71
2021/12/05 17:20:18;;;;;;;13.80;8.57;;;;;5.00;100069.00;;;;5006844;28;20234;-72
2021/12/05 17:23:08;;;;;;;12.87;8.13;;;;;4.90;100069.00;;;;5006480;28;20391;-73
2021/12/05 17:26:06;;;;;;;14.10;8.77;;;;;5.00;100078.00;;;;4989885;28;20237;-72
2021/12/05 17:28:55;;;;;;;12.37;7.73;;;;;4.90;100081.00;;;;4986452;28;20234;-73
2021/12/05 17:31:44;;;;;;;12.60;8.27;;;;;4.90;100094.00;;;;4991532;28;20250;-70
2021/12/05 17:34:34;;;;;;;11.77;7.40;;;;;4.90;100084.00;;;;4992298;28;20282;-72
2021/12/05 17:37:22;;;;;;;14.83;7.50;;;;;4.90;100080.00;;;;4977158;28;20399;-69
2021/12/05 17:40:10;;;;;;;10.13;7.27;;;;;4.90;100083.00;;;;4983180;28;20245;-71
2021/12/05 17:42:57;;;;;;;9.97;6.67;;;;;4.90;100090.00;;;;4997756;28;20294;-70
2021/12/05 17:45:44;;;;;;;9.77;6.93;;;;;4.90;100094.00;;;;4981192;28;20403;-72
2021/12/05 17:48:30;;;;;;;11.03;6.97;;;;;5.00;100104.00;;;;4991564;28;20598;-72
2021/12/05 17:51:17;;;;;;;11.77;7.57;;;;;5.00;100108.00;;;;5004293;28;20312;-71
2021/12/05 17:54:05;;;;;;;11.73;7.07;;;;;5.00;100112.00;;;;4984721;28;20253;-68
2021/12/05 17:56:54;;;;;;;8.17;6.60;;;;;4.90;100111.00;;;;4982847;28;20270;-71
2021/12/05 18:00:01;;;;;;;10.53;6.97;;;;;5.00;100127.00;;;;4994428;28;20229;-71
2021/12/05 18:02:48;;;;;;;9.30;5.97;;;;;4.90;100123.00;;;;4988814;28;20250;-71
2021/12/05 18:05:39;;;;;;;9.90;6.07;;;;;5.00;100129.00;;;;4982766;28;20242;-72
2021/12/05 18:08:25;;;;;;;9.70;6.20;;;;;4.90;100129.00;;;;4983397;28;20277;-73
2021/12/05 18:11:21;;;;;;;8.93;6.20;;;;;4.80;100136.00;;;;4979738;28;20432;-71
2021/12/05 18:14:08;;;;;;;8.73;5.50;;;;;4.90;100134.00;;;;4983088;28;20254;-71
2021/12/05 18:16:55;;;;;;;10.03;6.20;;;;;4.90;100134.00;;;;4974800;28;20225;-72
2021/12/05 18:19:43;;;;;;;10.43;5.63;;;;;4.90;100131.00;;;;4977103;28;20258;-72